sensor_id;sensor_type;location;lat;lon;timestamp;temperature;humidity
4431;DHT22;2228;48.140;11.488;2022-11-15T00:00:45;4.00;99.90
4431;DHT22;2228;48.140;11.488;2022-11-15T00:03:13;4.10;99.90
4431;DHT22;2228;48.140;11.488;2022-11-15T00:05:41;4.10;99.90
4431;DHT22;2228;48.140;11.488;2022-11-15T00:08:08;4.20;99.90
4431;DHT22;2228;48.140;11.488;2022-11-15T00:10:36;4.10;99.90
4431;DHT22;2228;48.140;11.488;2022-11-15T00:13:05;4.00;99.90
4431;DHT22;2228;48.140;11.488;2022-11-15T00:15:34;4.00;99.90
4431;DHT22;2228;48.140;11.488;2022-11-15T00:18:03;4.10;99.90
4431;DHT22;2228;48.140;11.488;2022-11-15T00:20:30;4.10;99.90
4431;DHT22;2228;48.140;11.488;2022-11-15T00:22:57;4.00;99.90
4431;DHT22;2228;48.140;11.488;2022-11-15T00:25:24;3.90;99.90
4431;DHT22;2228;48.140;11.488;2022-11-15T00:27:55;3.90;99.90
4431;DHT22;2228;48.140;11.488;2022-11-15T00:30:22;3.90;99.90
4431;DHT22;2228;48.140;11.488;2022-11-15T00:32:49;3.90;99.90
4431;DHT22;2228;48.140;11.488;2022-11-15T00:35:18;3.90;99.90
4431;DHT22;2228;48.140;11.488;2022-11-15T00:37:45;3.90;99.90
4431;DHT22;2228;48.140;11.488;2022-11-15T00:40:13;3.90;99.90
4431;DHT22;2228;48.140;11.488;2022-11-15T00:42:41;3.90;99.90
4431;DHT22;2228;48.140;11.488;2022-11-15T00:45:09;3.90;99.90
4431;DHT22;2228;48.140;11.488;2022-11-15T00:47:36;3.90;99.90
4431;DHT22;2228;48.140;11.488;2022-11-15T00:50:04;3.80;94.90
4431;DHT22;2228;48.140;11.488;2022-11-15T00:52:32;3.80;99.90
4431;DHT22;2228;48.140;11.488;2022-11-15T00:54:59;3.80;99.90
4431;DHT22;2228;48.140;11.488;2022-11-15T00:57:26;3.70;99.90
4431;DHT22;2228;48.140;11.488;2022-11-15T00:59:53;3.70;99.90
4431;DHT22;2228;48.140;11.488;2022-11-15T01:02:22;3.80;99.90
4431;DHT22;2228;48.140;11.488;2022-11-15T01:04:49;3.90;99.90
4431;DHT22;2228;48.140;11.488;2022-11-15T01:07:16;3.90;99.90
4431;DHT22;2228;48.140;11.488;2022-11-15T01:09:44;3.80;99.90
4431;DHT22;2228;48.140;11.488;2022-11-15T01:12:11;3.90;99.90
4431;DHT22;2228;48.140;11.488;2022-11-15T01:14:38;4.00;99.90
4431;DHT22;2228;48.140;11.488;2022-11-15T01:17:05;3.90;99.90
4431;DHT22;2228;48.140;11.488;2022-11-15T01:19:32;3.90;99.90
4431;DHT22;2228;48.140;11.488;2022-11-15T01:21:59;3.90;99.90
4431;DHT22;2228;48.140;11.488;2022-11-15T01:24:27;4.00;99.90
4431;DHT22;2228;48.140;11.488;2022-11-15T01:26:55;3.90;99.90
4431;DHT22;2228;48.140;11.488;2022-11-15T01:29:22;3.80;98.20
4431;DHT22;2228;48.140;11.488;2022-11-15T01:31:49;3.70;99.90
4431;DHT22;2228;48.140;11.488;2022-11-15T01:34:16;3.80;99.90
4431;DHT22;2228;48.140;11.488;2022-11-15T01:36:43;3.90;99.90
4431;DHT22;2228;48.140;11.488;2022-11-15T01:39:10;3.80;99.90
4431;DHT22;2228;48.140;11.488;2022-11-15T01:41:37;3.80;99.90
4431;DHT22;2228;48.140;11.488;2022-11-15T01:44:37;3.80;99.90
4431;DHT22;2228;48.140;11.488;2022-11-15T01:47:07;3.70;99.90
4431;DHT22;2228;48.140;11.488;2022-11-15T01:49:38;4.00;99.90
4431;DHT22;2228;48.140;11.488;2022-11-15T01:52:10;4.10;99.90
4431;DHT22;2228;48.140;11.488;2022-11-15T01:54:38;4.00;99.90
4431;DHT22;2228;48.140;11.488;2022-11-15T01:57:07;4.00;99.90
4431;DHT22;2228;48.140;11.488;2022-11-15T01:59:37;3.90;99.90
4431;DHT22;2228;48.140;11.488;2022-11-15T02:02:04;3.80;99.90
4431;DHT22;2228;48.140;11.488;2022-11-15T02:04:33;3.80;99.90
4431;DHT22;2228;48.140;11.488;2022-11-15T02:07:03;3.70;92.00
4431;DHT22;2228;48.140;11.488;2022-11-15T02:09:31;3.70;99.90
4431;DHT22;2228;48.140;11.488;2022-11-15T02:11:59;3.80;99.90
4431;DHT22;2228;48.140;11.488;2022-11-15T02:14:28;3.70;99.90
4431;DHT22;2228;48.140;11.488;2022-11-15T02:17:01;3.70;99.90
4431;DHT22;2228;48.140;11.488;2022-11-15T02:19:47;3.60;99.90
4431;DHT22;2228;48.140;11.488;2022-11-15T02:22:26;3.50;60.30
4431;DHT22;2228;48.140;11.488;2022-11-15T02:25:08;3.40;99.90
4431;DHT22;2228;48.140;11.488;2022-11-15T02:30:43;3.30;99.90
4431;DHT22;2228;48.140;11.488;2022-11-15T02:33:20;3.30;89.50
4431;DHT22;2228;48.140;11.488;2022-11-15T02:35:57;3.20;91.70
4431;DHT22;2228;48.140;11.488;2022-11-15T02:38:33;3.20;62.00
4431;DHT22;2228;48.140;11.488;2022-11-15T02:41:03;3.10;16.20
4431;DHT22;2228;48.140;11.488;2022-11-15T02:43:37;3.10;55.90
4431;DHT22;2228;48.140;11.488;2022-11-15T02:48:58;3.10;89.30
4431;DHT22;2228;48.140;11.488;2022-11-15T02:51:25;3.10;15.40
4431;DHT22;2228;48.140;11.488;2022-11-15T02:53:52;2.90;39.90
4431;DHT22;2228;48.140;11.488;2022-11-15T02:56:19;2.90;39.10
4431;DHT22;2228;48.140;11.488;2022-11-15T02:59:00;2.90;75.90
4431;DHT22;2228;48.140;11.488;2022-11-15T03:01:38;2.90;73.70
4431;DHT22;2228;48.140;11.488;2022-11-15T03:04:19;2.90;94.00
4431;DHT22;2228;48.140;11.488;2022-11-15T03:06:52;2.90;66.90
4431;DHT22;2228;48.140;11.488;2022-11-15T03:09:28;2.90;99.00
4431;DHT22;2228;48.140;11.488;2022-11-15T03:12:01;2.90;99.90
4431;DHT22;2228;48.140;11.488;2022-11-15T03:14:32;2.90;89.10
4431;DHT22;2228;48.140;11.488;2022-11-15T03:17:05;2.90;87.10
4431;DHT22;2228;48.140;11.488;2022-11-15T03:19:42;2.90;64.20
4431;DHT22;2228;48.140;11.488;2022-11-15T03:22:12;2.70;89.90
4431;DHT22;2228;48.140;11.488;2022-11-15T03:24:41;2.70;99.90
4431;DHT22;2228;48.140;11.488;2022-11-15T03:27:11;2.80;99.90
4431;DHT22;2228;48.140;11.488;2022-11-15T03:29:41;2.80;99.90
4431;DHT22;2228;48.140;11.488;2022-11-15T03:32:12;2.70;99.90
4431;DHT22;2228;48.140;11.488;2022-11-15T03:34:45;2.70;99.90
4431;DHT22;2228;48.140;11.488;2022-11-15T03:37:15;2.70;99.90
4431;DHT22;2228;48.140;11.488;2022-11-15T03:39:43;2.70;99.90
4431;DHT22;2228;48.140;11.488;2022-11-15T03:42:18;2.70;99.90
4431;DHT22;2228;48.140;11.488;2022-11-15T03:44:52;2.70;99.90
4431;DHT22;2228;48.140;11.488;2022-11-15T03:47:23;2.80;99.90
4431;DHT22;2228;48.140;11.488;2022-11-15T03:49:58;2.70;92.30
4431;DHT22;2228;48.140;11.488;2022-11-15T03:52:31;2.60;99.90
4431;DHT22;2228;48.140;11.488;2022-11-15T03:55:01;2.60;99.90
4431;DHT22;2228;48.140;11.488;2022-11-15T03:57:29;2.60;99.90
4431;DHT22;2228;48.140;11.488;2022-11-15T03:59:56;2.70;99.90
4431;DHT22;2228;48.140;11.488;2022-11-15T04:02:23;2.80;77.60
4431;DHT22;2228;48.140;11.488;2022-11-15T04:04:49;2.70;95.00
4431;DHT22;2228;48.140;11.488;2022-11-15T04:07:18;2.70;58.10
4431;DHT22;2228;48.140;11.488;2022-11-15T04:09:44;2.60;30.00
4431;DHT22;2228;48.140;11.488;2022-11-15T04:12:31;2.50;55.80
4431;DHT22;2228;48.140;11.488;2022-11-15T04:14:59;2.50;99.90
4431;DHT22;2228;48.140;11.488;2022-11-15T04:17:40;2.50;54.10
4431;DHT22;2228;48.140;11.488;2022-11-15T04:20:11;2.50;78.00
4431;DHT22;2228;48.140;11.488;2022-11-15T04:22:59;2.50;36.40
4431;DHT22;2228;48.140;11.488;2022-11-15T04:25:44;2.50;33.60
4431;DHT22;2228;48.140;11.488;2022-11-15T04:28:12;2.40;30.10
4431;DHT22;2228;48.140;11.488;2022-11-15T04:30:39;2.40;41.00
4431;DHT22;2228;48.140;11.488;2022-11-15T04:33:05;2.30;57.10
4431;DHT22;2228;48.140;11.488;2022-11-15T04:35:32;2.20;83.60
4431;DHT22;2228;48.140;11.488;2022-11-15T04:38:02;2.20;98.70
4431;DHT22;2228;48.140;11.488;2022-11-15T04:40:28;2.10;99.90
4431;DHT22;2228;48.140;11.488;2022-11-15T04:42:55;2.10;99.90
4431;DHT22;2228;48.140;11.488;2022-11-15T04:45:22;2.30;99.90
4431;DHT22;2228;48.140;11.488;2022-11-15T04:47:48;2.40;99.90
4431;DHT22;2228;48.140;11.488;2022-11-15T04:50:16;2.50;99.90
4431;DHT22;2228;48.140;11.488;2022-11-15T04:52:48;2.50;99.90
4431;DHT22;2228;48.140;11.488;2022-11-15T04:55:17;2.50;99.90
4431;DHT22;2228;48.140;11.488;2022-11-15T04:57:44;2.50;79.50
4431;DHT22;2228;48.140;11.488;2022-11-15T05:00:14;2.40;65.80
4431;DHT22;2228;48.140;11.488;2022-11-15T05:02:42;2.40;78.20
4431;DHT22;2228;48.140;11.488;2022-11-15T05:05:27;2.40;80.00
4431;DHT22;2228;48.140;11.488;2022-11-15T05:07:54;2.40;60.70
4431;DHT22;2228;48.140;11.488;2022-11-15T05:10:23;2.40;99.90
4431;DHT22;2228;48.140;11.488;2022-11-15T05:12:50;2.40;93.40
4431;DHT22;2228;48.140;11.488;2022-11-15T05:15:17;2.40;99.90
4431;DHT22;2228;48.140;11.488;2022-11-15T05:17:44;2.40;66.50
4431;DHT22;2228;48.140;11.488;2022-11-15T05:20:11;2.40;46.60
4431;DHT22;2228;48.140;11.488;2022-11-15T05:22:38;2.30;37.20
4431;DHT22;2228;48.140;11.488;2022-11-15T05:25:06;2.20;99.90
4431;DHT22;2228;48.140;11.488;2022-11-15T05:27:37;2.10;99.90
4431;DHT22;2228;48.140;11.488;2022-11-15T05:30:04;2.10;99.90
4431;DHT22;2228;48.140;11.488;2022-11-15T05:32:31;2.10;99.90
4431;DHT22;2228;48.140;11.488;2022-11-15T05:34:58;2.10;99.90
4431;DHT22;2228;48.140;11.488;2022-11-15T05:37:25;2.00;99.90
4431;DHT22;2228;48.140;11.488;2022-11-15T05:39:52;2.00;99.90
4431;DHT22;2228;48.140;11.488;2022-11-15T05:42:19;2.00;99.90
4431;DHT22;2228;48.140;11.488;2022-11-15T05:44:48;2.00;99.90
4431;DHT22;2228;48.140;11.488;2022-11-15T05:47:19;2.10;99.90
4431;DHT22;2228;48.140;11.488;2022-11-15T05:49:48;2.20;99.90
4431;DHT22;2228;48.140;11.488;2022-11-15T05:52:21;2.20;99.90
4431;DHT22;2228;48.140;11.488;2022-11-15T05:54:49;2.20;95.10
4431;DHT22;2228;48.140;11.488;2022-11-15T05:57:17;2.10;60.30
4431;DHT22;2228;48.140;11.488;2022-11-15T05:59:45;2.00;65.70
4431;DHT22;2228;48.140;11.488;2022-11-15T06:02:13;1.90;99.90
4431;DHT22;2228;48.140;11.488;2022-11-15T06:04:40;1.80;99.90
4431;DHT22;2228;48.140;11.488;2022-11-15T06:07:07;1.80;99.90
4431;DHT22;2228;48.140;11.488;2022-11-15T06:09:34;1.80;99.90
4431;DHT22;2228;48.140;11.488;2022-11-15T06:12:01;1.90;99.90
4431;DHT22;2228;48.140;11.488;2022-11-15T06:14:28;1.90;99.90
4431;DHT22;2228;48.140;11.488;2022-11-15T06:16:55;2.00;99.90
4431;DHT22;2228;48.140;11.488;2022-11-15T06:19:24;2.00;99.90
4431;DHT22;2228;48.140;11.488;2022-11-15T06:21:50;2.00;77.30
4431;DHT22;2228;48.140;11.488;2022-11-15T06:24:17;2.00;99.80
4431;DHT22;2228;48.140;11.488;2022-11-15T06:26:44;2.00;94.40
4431;DHT22;2228;48.140;11.488;2022-11-15T06:29:11;2.00;99.90
4431;DHT22;2228;48.140;11.488;2022-11-15T06:31:38;2.10;95.20
4431;DHT22;2228;48.140;11.488;2022-11-15T06:34:05;2.00;99.90
4431;DHT22;2228;48.140;11.488;2022-11-15T06:36:35;2.00;99.90
4431;DHT22;2228;48.140;11.488;2022-11-15T06:39:03;2.00;99.90
4431;DHT22;2228;48.140;11.488;2022-11-15T06:41:30;2.10;99.90
4431;DHT22;2228;48.140;11.488;2022-11-15T06:43:57;2.20;99.90
4431;DHT22;2228;48.140;11.488;2022-11-15T06:46:24;2.20;99.90
4431;DHT22;2228;48.140;11.488;2022-11-15T06:48:51;2.20;99.90
4431;DHT22;2228;48.140;11.488;2022-11-15T06:51:18;2.20;99.90
4431;DHT22;2228;48.140;11.488;2022-11-15T06:53:46;2.30;99.90
4431;DHT22;2228;48.140;11.488;2022-11-15T06:56:13;2.30;99.90
4431;DHT22;2228;48.140;11.488;2022-11-15T06:58:40;2.40;99.90
4431;DHT22;2228;48.140;11.488;2022-11-15T07:01:09;2.40;99.90
4431;DHT22;2228;48.140;11.488;2022-11-15T07:03:37;2.60;99.90
4431;DHT22;2228;48.140;11.488;2022-11-15T07:06:05;2.70;99.90
4431;DHT22;2228;48.140;11.488;2022-11-15T07:08:32;2.80;99.90
4431;DHT22;2228;48.140;11.488;2022-11-15T07:11:02;2.80;99.90
4431;DHT22;2228;48.140;11.488;2022-11-15T07:13:31;2.80;99.90
4431;DHT22;2228;48.140;11.488;2022-11-15T07:16:01;2.80;99.90
4431;DHT22;2228;48.140;11.488;2022-11-15T07:18:28;2.90;99.90
4431;DHT22;2228;48.140;11.488;2022-11-15T07:20:55;2.90;99.90
4431;DHT22;2228;48.140;11.488;2022-11-15T07:23:22;3.00;99.90
4431;DHT22;2228;48.140;11.488;2022-11-15T07:25:49;3.10;1.00
4431;DHT22;2228;48.140;11.488;2022-11-15T07:28:17;3.20;99.90
4431;DHT22;2228;48.140;11.488;2022-11-15T07:30:44;3.30;99.90
4431;DHT22;2228;48.140;11.488;2022-11-15T07:33:11;3.40;99.90
4431;DHT22;2228;48.140;11.488;2022-11-15T07:35:38;3.60;1.00
4431;DHT22;2228;48.140;11.488;2022-11-15T07:38:05;3.80;1.00
4431;DHT22;2228;48.140;11.488;2022-11-15T07:40:32;4.00;99.90
4431;DHT22;2228;48.140;11.488;2022-11-15T07:43:00;4.20;99.90
4431;DHT22;2228;48.140;11.488;2022-11-15T07:45:29;4.20;99.90
4431;DHT22;2228;48.140;11.488;2022-11-15T07:47:56;4.20;99.90
4431;DHT22;2228;48.140;11.488;2022-11-15T07:50:23;4.40;99.90
4431;DHT22;2228;48.140;11.488;2022-11-15T07:52:54;4.50;99.90
4431;DHT22;2228;48.140;11.488;2022-11-15T07:55:22;4.60;99.90
4431;DHT22;2228;48.140;11.488;2022-11-15T07:57:49;4.80;1.00
4431;DHT22;2228;48.140;11.488;2022-11-15T08:00:17;4.90;1.00
4431;DHT22;2228;48.140;11.488;2022-11-15T08:02:45;5.20;1.00
4431;DHT22;2228;48.140;11.488;2022-11-15T08:05:12;5.40;99.90
4431;DHT22;2228;48.140;11.488;2022-11-15T08:07:39;5.60;99.90
4431;DHT22;2228;48.140;11.488;2022-11-15T08:10:07;5.80;99.90
4431;DHT22;2228;48.140;11.488;2022-11-15T08:12:34;6.00;99.90
4431;DHT22;2228;48.140;11.488;2022-11-15T08:15:02;6.20;99.90
4431;DHT22;2228;48.140;11.488;2022-11-15T08:17:29;6.40;99.90
4431;DHT22;2228;48.140;11.488;2022-11-15T08:19:59;6.60;99.90
4431;DHT22;2228;48.140;11.488;2022-11-15T08:22:26;6.80;91.60
4431;DHT22;2228;48.140;11.488;2022-11-15T08:24:53;7.00;1.00
4431;DHT22;2228;48.140;11.488;2022-11-15T08:27:20;7.20;19.10
4431;DHT22;2228;48.140;11.488;2022-11-15T08:29:48;7.40;99.90
4431;DHT22;2228;48.140;11.488;2022-11-15T08:32:15;7.70;99.90
4431;DHT22;2228;48.140;11.488;2022-11-15T08:34:43;7.90;26.30
4431;DHT22;2228;48.140;11.488;2022-11-15T08:37:11;8.10;1.00
4431;DHT22;2228;48.140;11.488;2022-11-15T08:39:38;8.30;1.00
4431;DHT22;2228;48.140;11.488;2022-11-15T08:42:05;8.50;99.90
4431;DHT22;2228;48.140;11.488;2022-11-15T08:44:32;8.60;99.90
4431;DHT22;2228;48.140;11.488;2022-11-15T08:49:52;9.00;1.00
4431;DHT22;2228;48.140;11.488;2022-11-15T08:52:21;9.30;99.90
4431;DHT22;2228;48.140;11.488;2022-11-15T08:54:48;9.50;99.90
4431;DHT22;2228;48.140;11.488;2022-11-15T08:57:15;9.70;99.90
4431;DHT22;2228;48.140;11.488;2022-11-15T08:59:42;9.90;99.90
4431;DHT22;2228;48.140;11.488;2022-11-15T09:02:11;10.00;99.90
4431;DHT22;2228;48.140;11.488;2022-11-15T09:04:40;10.30;99.90
4431;DHT22;2228;48.140;11.488;2022-11-15T09:07:08;10.70;99.90
4431;DHT22;2228;48.140;11.488;2022-11-15T09:09:36;11.20;99.90
4431;DHT22;2228;48.140;11.488;2022-11-15T09:12:04;11.70;99.90
4431;DHT22;2228;48.140;11.488;2022-11-15T09:14:31;12.20;99.90
4431;DHT22;2228;48.140;11.488;2022-11-15T09:16:58;12.60;1.00
4431;DHT22;2228;48.140;11.488;2022-11-15T09:19:27;12.90;1.00
4431;DHT22;2228;48.140;11.488;2022-11-15T09:21:54;13.20;1.00
4431;DHT22;2228;48.140;11.488;2022-11-15T09:24:21;13.50;19.10
4431;DHT22;2228;48.140;11.488;2022-11-15T09:26:51;13.80;1.00
4431;DHT22;2228;48.140;11.488;2022-11-15T09:29:18;14.20;1.00
4431;DHT22;2228;48.140;11.488;2022-11-15T09:31:45;14.50;1.00
4431;DHT22;2228;48.140;11.488;2022-11-15T09:34:12;14.80;1.00
4431;DHT22;2228;48.140;11.488;2022-11-15T09:36:39;15.10;1.00
4431;DHT22;2228;48.140;11.488;2022-11-15T09:39:06;15.40;1.00
4431;DHT22;2228;48.140;11.488;2022-11-15T09:42:01;15.80;1.00
4431;DHT22;2228;48.140;11.488;2022-11-15T09:44:41;16.10;1.00
4431;DHT22;2228;48.140;11.488;2022-11-15T09:47:38;16.30;1.00
4431;DHT22;2228;48.140;11.488;2022-11-15T09:50:10;16.60;1.00
4431;DHT22;2228;48.140;11.488;2022-11-15T09:52:41;16.80;1.00
4431;DHT22;2228;48.140;11.488;2022-11-15T09:55:09;16.90;1.00
4431;DHT22;2228;48.140;11.488;2022-11-15T09:57:46;16.90;1.00
4431;DHT22;2228;48.140;11.488;2022-11-15T10:00:19;16.80;1.00
4431;DHT22;2228;48.140;11.488;2022-11-15T10:03:02;16.60;1.00
4431;DHT22;2228;48.140;11.488;2022-11-15T10:05:32;16.40;1.00
4431;DHT22;2228;48.140;11.488;2022-11-15T10:08:06;16.30;1.00
4431;DHT22;2228;48.140;11.488;2022-11-15T10:10:39;16.10;1.00
4431;DHT22;2228;48.140;11.488;2022-11-15T10:13:13;16.00;1.00
4431;DHT22;2228;48.140;11.488;2022-11-15T10:15:43;15.90;1.00
4431;DHT22;2228;48.140;11.488;2022-11-15T10:18:18;15.80;1.00
4431;DHT22;2228;48.140;11.488;2022-11-15T10:20:57;15.70;1.00
4431;DHT22;2228;48.140;11.488;2022-11-15T10:23:31;15.40;1.00
4431;DHT22;2228;48.140;11.488;2022-11-15T10:25:59;15.30;1.00
4431;DHT22;2228;48.140;11.488;2022-11-15T10:28:29;15.20;1.00
4431;DHT22;2228;48.140;11.488;2022-11-15T10:30:57;15.10;1.00
4431;DHT22;2228;48.140;11.488;2022-11-15T10:33:27;15.20;1.00
4431;DHT22;2228;48.140;11.488;2022-11-15T10:36:20;15.20;1.00
4431;DHT22;2228;48.140;11.488;2022-11-15T10:38:54;15.20;1.00
4431;DHT22;2228;48.140;11.488;2022-11-15T10:41:28;15.30;1.00
4431;DHT22;2228;48.140;11.488;2022-11-15T10:44:22;15.30;1.00
4431;DHT22;2228;48.140;11.488;2022-11-15T10:47:06;15.30;1.00
4431;DHT22;2228;48.140;11.488;2022-11-15T10:49:34;15.30;1.00
4431;DHT22;2228;48.140;11.488;2022-11-15T10:52:04;15.50;1.00
4431;DHT22;2228;48.140;11.488;2022-11-15T10:54:42;15.50;1.00
4431;DHT22;2228;48.140;11.488;2022-11-15T10:57:13;15.60;1.00
4431;DHT22;2228;48.140;11.488;2022-11-15T10:59:45;15.60;1.00
4431;DHT22;2228;48.140;11.488;2022-11-15T11:02:30;15.70;1.00
4431;DHT22;2228;48.140;11.488;2022-11-15T11:04:58;15.70;1.00
4431;DHT22;2228;48.140;11.488;2022-11-15T11:07:27;15.70;1.00
4431;DHT22;2228;48.140;11.488;2022-11-15T11:09:59;15.60;1.00
4431;DHT22;2228;48.140;11.488;2022-11-15T11:12:28;15.50;1.00
4431;DHT22;2228;48.140;11.488;2022-11-15T11:14:59;15.40;1.00
4431;DHT22;2228;48.140;11.488;2022-11-15T11:17:34;15.30;1.00
4431;DHT22;2228;48.140;11.488;2022-11-15T11:20:10;15.30;1.00
4431;DHT22;2228;48.140;11.488;2022-11-15T11:22:42;15.40;1.00
4431;DHT22;2228;48.140;11.488;2022-11-15T11:25:19;15.40;1.00
4431;DHT22;2228;48.140;11.488;2022-11-15T11:27:59;15.40;1.00
4431;DHT22;2228;48.140;11.488;2022-11-15T11:30:42;15.40;1.00
4431;DHT22;2228;48.140;11.488;2022-11-15T11:33:16;15.50;1.00
4431;DHT22;2228;48.140;11.488;2022-11-15T11:35:53;15.70;1.00
4431;DHT22;2228;48.140;11.488;2022-11-15T11:38:39;15.70;1.00
4431;DHT22;2228;48.140;11.488;2022-11-15T11:41:15;15.60;1.00
4431;DHT22;2228;48.140;11.488;2022-11-15T11:43:51;15.50;1.00
4431;DHT22;2228;48.140;11.488;2022-11-15T11:46:48;15.50;1.00
4431;DHT22;2228;48.140;11.488;2022-11-15T11:49:20;15.50;1.00
4431;DHT22;2228;48.140;11.488;2022-11-15T11:51:51;15.40;1.00
4431;DHT22;2228;48.140;11.488;2022-11-15T11:54:24;15.40;1.00
4431;DHT22;2228;48.140;11.488;2022-11-15T11:56:53;15.40;1.00
4431;DHT22;2228;48.140;11.488;2022-11-15T11:59:30;15.50;1.00
4431;DHT22;2228;48.140;11.488;2022-11-15T12:02:07;15.50;1.00
4431;DHT22;2228;48.140;11.488;2022-11-15T12:04:40;15.50;1.00
4431;DHT22;2228;48.140;11.488;2022-11-15T12:07:13;15.50;1.00
4431;DHT22;2228;48.140;11.488;2022-11-15T12:09:44;15.50;1.00
4431;DHT22;2228;48.140;11.488;2022-11-15T12:12:18;15.50;1.00
4431;DHT22;2228;48.140;11.488;2022-11-15T12:14:51;15.70;1.00
4431;DHT22;2228;48.140;11.488;2022-11-15T12:17:23;16.40;1.00
4431;DHT22;2228;48.140;11.488;2022-11-15T12:19:52;17.30;1.00
4431;DHT22;2228;48.140;11.488;2022-11-15T12:22:26;18.30;1.00
4431;DHT22;2228;48.140;11.488;2022-11-15T12:24:59;19.20;1.00
4431;DHT22;2228;48.140;11.488;2022-11-15T12:27:33;19.90;1.00
4431;DHT22;2228;48.140;11.488;2022-11-15T12:30:07;20.60;1.00
4431;DHT22;2228;48.140;11.488;2022-11-15T12:32:38;21.40;1.00
4431;DHT22;2228;48.140;11.488;2022-11-15T12:35:23;21.90;1.00
4431;DHT22;2228;48.140;11.488;2022-11-15T12:37:51;22.20;1.00
4431;DHT22;2228;48.140;11.488;2022-11-15T12:40:28;22.20;1.00
4431;DHT22;2228;48.140;11.488;2022-11-15T12:45:54;22.70;1.00
4431;DHT22;2228;48.140;11.488;2022-11-15T12:57:39;24.70;1.00
4431;DHT22;2228;48.140;11.488;2022-11-15T13:03:24;24.70;1.00
4431;DHT22;2228;48.140;11.488;2022-11-15T13:06:08;24.70;1.00
4431;DHT22;2228;48.140;11.488;2022-11-15T13:08:51;24.70;1.00
4431;DHT22;2228;48.140;11.488;2022-11-15T13:11:46;24.20;1.00
4431;DHT22;2228;48.140;11.488;2022-11-15T13:14:41;23.90;1.00
4431;DHT22;2228;48.140;11.488;2022-11-15T13:17:25;24.00;1.00
4431;DHT22;2228;48.140;11.488;2022-11-15T13:20:20;24.50;1.00
4431;DHT22;2228;48.140;11.488;2022-11-15T13:22:48;25.20;1.00
4431;DHT22;2228;48.140;11.488;2022-11-15T13:25:35;25.70;1.00
4431;DHT22;2228;48.140;11.488;2022-11-15T13:28:11;26.00;1.00
4431;DHT22;2228;48.140;11.488;2022-11-15T13:30:50;26.20;1.00
4431;DHT22;2228;48.140;11.488;2022-11-15T13:33:21;26.10;1.00
4431;DHT22;2228;48.140;11.488;2022-11-15T13:35:51;26.20;1.00
4431;DHT22;2228;48.140;11.488;2022-11-15T13:38:26;26.50;1.00
4431;DHT22;2228;48.140;11.488;2022-11-15T13:40:54;26.60;1.00
4431;DHT22;2228;48.140;11.488;2022-11-15T13:43:32;26.40;1.00
4431;DHT22;2228;48.140;11.488;2022-11-15T13:46:09;26.30;1.00
4431;DHT22;2228;48.140;11.488;2022-11-15T13:48:36;26.50;1.00
4431;DHT22;2228;48.140;11.488;2022-11-15T13:51:08;26.40;1.00
4431;DHT22;2228;48.140;11.488;2022-11-15T13:53:39;26.40;1.00
4431;DHT22;2228;48.140;11.488;2022-11-15T13:56:07;26.00;1.00
4431;DHT22;2228;48.140;11.488;2022-11-15T13:58:37;25.70;1.00
4431;DHT22;2228;48.140;11.488;2022-11-15T14:01:05;25.40;1.00
4431;DHT22;2228;48.140;11.488;2022-11-15T14:03:34;25.40;1.00
4431;DHT22;2228;48.140;11.488;2022-11-15T14:06:10;25.20;1.00
4431;DHT22;2228;48.140;11.488;2022-11-15T14:08:38;24.90;1.00
4431;DHT22;2228;48.140;11.488;2022-11-15T14:11:07;24.50;1.00
4431;DHT22;2228;48.140;11.488;2022-11-15T14:13:35;24.00;1.00
4431;DHT22;2228;48.140;11.488;2022-11-15T14:16:16;23.60;1.00
4431;DHT22;2228;48.140;11.488;2022-11-15T14:18:46;23.40;1.00
4431;DHT22;2228;48.140;11.488;2022-11-15T14:21:15;22.90;1.00
4431;DHT22;2228;48.140;11.488;2022-11-15T14:23:42;22.70;1.00
4431;DHT22;2228;48.140;11.488;2022-11-15T14:26:26;22.60;1.00
4431;DHT22;2228;48.140;11.488;2022-11-15T14:28:53;22.20;1.00
4431;DHT22;2228;48.140;11.488;2022-11-15T14:31:21;21.50;1.00
4431;DHT22;2228;48.140;11.488;2022-11-15T14:33:48;20.60;1.00
4431;DHT22;2228;48.140;11.488;2022-11-15T14:36:18;19.60;1.00
4431;DHT22;2228;48.140;11.488;2022-11-15T14:38:46;18.90;1.00
4431;DHT22;2228;48.140;11.488;2022-11-15T14:41:19;18.40;1.00
4431;DHT22;2228;48.140;11.488;2022-11-15T14:43:46;17.80;1.00
4431;DHT22;2228;48.140;11.488;2022-11-15T14:46:13;17.20;1.00
4431;DHT22;2228;48.140;11.488;2022-11-15T14:48:40;16.70;1.00
4431;DHT22;2228;48.140;11.488;2022-11-15T14:51:12;16.20;1.00
4431;DHT22;2228;48.140;11.488;2022-11-15T14:53:41;15.80;1.00
4431;DHT22;2228;48.140;11.488;2022-11-15T14:56:08;15.50;1.00
4431;DHT22;2228;48.140;11.488;2022-11-15T14:58:35;15.10;1.00
4431;DHT22;2228;48.140;11.488;2022-11-15T15:01:03;14.70;1.00
4431;DHT22;2228;48.140;11.488;2022-11-15T15:03:35;14.30;1.00
4431;DHT22;2228;48.140;11.488;2022-11-15T15:06:03;14.00;1.00
4431;DHT22;2228;48.140;11.488;2022-11-15T15:08:30;13.80;1.00
4431;DHT22;2228;48.140;11.488;2022-11-15T15:10:58;13.50;1.00
4431;DHT22;2228;48.140;11.488;2022-11-15T15:13:25;13.30;1.00
4431;DHT22;2228;48.140;11.488;2022-11-15T15:15:54;13.20;1.00
4431;DHT22;2228;48.140;11.488;2022-11-15T15:18:21;13.00;1.00
4431;DHT22;2228;48.140;11.488;2022-11-15T15:20:53;12.80;1.00
4431;DHT22;2228;48.140;11.488;2022-11-15T15:23:21;12.70;1.00
4431;DHT22;2228;48.140;11.488;2022-11-15T15:25:49;12.60;1.00
4431;DHT22;2228;48.140;11.488;2022-11-15T15:28:19;12.50;1.00
4431;DHT22;2228;48.140;11.488;2022-11-15T15:30:46;12.20;1.00
4431;DHT22;2228;48.140;11.488;2022-11-15T15:33:15;12.10;10.00
4431;DHT22;2228;48.140;11.488;2022-11-15T15:35:42;12.00;32.60
4431;DHT22;2228;48.140;11.488;2022-11-15T15:38:10;11.90;41.80
4431;DHT22;2228;48.140;11.488;2022-11-15T15:40:38;11.80;73.70
4431;DHT22;2228;48.140;11.488;2022-11-15T15:43:05;11.70;81.70
4431;DHT22;2228;48.140;11.488;2022-11-15T15:45:37;11.60;93.90
4431;DHT22;2228;48.140;11.488;2022-11-15T15:48:05;11.60;99.90
4431;DHT22;2228;48.140;11.488;2022-11-15T15:50:33;11.40;99.90
4431;DHT22;2228;48.140;11.488;2022-11-15T15:53:01;11.30;99.90
4431;DHT22;2228;48.140;11.488;2022-11-15T15:55:28;11.20;99.90
4431;DHT22;2228;48.140;11.488;2022-11-15T15:57:55;11.20;99.90
4431;DHT22;2228;48.140;11.488;2022-11-15T16:00:24;11.00;99.90
4431;DHT22;2228;48.140;11.488;2022-11-15T16:02:53;10.90;99.90
4431;DHT22;2228;48.140;11.488;2022-11-15T16:05:21;10.70;99.90
4431;DHT22;2228;48.140;11.488;2022-11-15T16:07:48;10.60;99.90
4431;DHT22;2228;48.140;11.488;2022-11-15T16:10:18;10.50;99.90
4431;DHT22;2228;48.140;11.488;2022-11-15T16:12:46;10.40;99.90
4431;DHT22;2228;48.140;11.488;2022-11-15T16:15:13;10.20;99.90
4431;DHT22;2228;48.140;11.488;2022-11-15T16:17:44;10.10;99.90
4431;DHT22;2228;48.140;11.488;2022-11-15T16:20:23;10.00;99.90
4431;DHT22;2228;48.140;11.488;2022-11-15T16:22:53;9.90;99.90
4431;DHT22;2228;48.140;11.488;2022-11-15T16:25:20;9.80;99.90
4431;DHT22;2228;48.140;11.488;2022-11-15T16:27:47;9.80;99.90
4431;DHT22;2228;48.140;11.488;2022-11-15T16:30:15;9.70;99.90
4431;DHT22;2228;48.140;11.488;2022-11-15T16:32:43;9.70;99.90
4431;DHT22;2228;48.140;11.488;2022-11-15T16:35:11;9.70;99.90
4431;DHT22;2228;48.140;11.488;2022-11-15T16:37:40;9.60;99.90
4431;DHT22;2228;48.140;11.488;2022-11-15T16:40:22;9.60;99.90
4431;DHT22;2228;48.140;11.488;2022-11-15T16:42:49;9.60;99.90
4431;DHT22;2228;48.140;11.488;2022-11-15T16:45:16;9.50;99.90
4431;DHT22;2228;48.140;11.488;2022-11-15T16:47:43;9.50;99.90